createdAt,value
2017-10-11T00:06:49.000Z,19.67
2017-10-11T00:16:49.000Z,19.66
2017-10-11T00:26:49.000Z,19.64
2017-10-11T00:36:49.000Z,19.66
2017-10-11T00:46:49.000Z,19.67
2017-10-11T00:56:49.000Z,19.73
2017-10-11T01:06:49.000Z,19.78
2017-10-11T01:16:49.000Z,19.77
2017-10-11T01:26:49.000Z,19.72
2017-10-11T01:36:49.000Z,19.7
2017-10-11T01:46:49.000Z,19.66
2017-10-11T01:56:49.000Z,19.66
2017-10-11T02:06:49.000Z,19.65
2017-10-11T02:16:49.000Z,19.64
2017-10-11T02:26:49.000Z,19.62
2017-10-11T02:36:49.000Z,19.61
2017-10-11T02:46:49.000Z,19.6
2017-10-11T02:56:49.000Z,19.58
2017-10-11T03:06:49.000Z,19.58
2017-10-11T03:16:49.000Z,19.57
2017-10-11T03:26:49.000Z,19.56
2017-10-11T03:36:49.000Z,19.55
2017-10-11T03:46:49.000Z,19.55
2017-10-11T03:56:49.000Z,19.55
2017-10-11T04:06:49.000Z,19.55
2017-10-11T04:16:49.000Z,19.54
2017-10-11T04:26:49.000Z,19.54
2017-10-11T04:36:49.000Z,19.53
2017-10-11T04:46:49.000Z,19.53
2017-10-11T04:56:50.000Z,19.53
2017-10-11T05:06:49.000Z,19.53
2017-10-11T05:16:50.000Z,19.53
2017-10-11T05:26:50.000Z,19.55
2017-10-11T05:36:50.000Z,19.53
2017-10-11T05:46:50.000Z,19.53
2017-10-11T05:56:50.000Z,19.53
2017-10-11T06:06:50.000Z,19.53
2017-10-11T06:16:50.000Z,19.55
2017-10-11T06:26:50.000Z,19.54
2017-10-11T06:36:50.000Z,19.56
2017-10-11T06:46:50.000Z,19.57
2017-10-11T06:56:50.000Z,19.57
2017-10-11T07:06:50.000Z,19.59
2017-10-11T07:16:50.000Z,19.6
2017-10-11T07:26:50.000Z,19.61
2017-10-11T07:36:50.000Z,19.62
2017-10-11T07:46:50.000Z,19.64
2017-10-11T07:56:50.000Z,19.66
2017-10-11T08:06:50.000Z,19.67
2017-10-11T08:16:50.000Z,19.7
2017-10-11T08:26:50.000Z,19.73
2017-10-11T08:36:50.000Z,19.74
2017-10-11T08:46:50.000Z,19.77
2017-10-11T08:56:50.000Z,19.79
2017-10-11T09:06:50.000Z,19.77
2017-10-11T09:16:50.000Z,19.85
2017-10-11T09:26:50.000Z,19.91
2017-10-11T09:36:50.000Z,19.94
2017-10-11T09:46:50.000Z,19.97
2017-10-11T09:56:50.000Z,20.03
2017-10-11T10:06:50.000Z,19.97
2017-10-11T10:16:50.000Z,19.96
2017-10-11T10:26:50.000Z,19.96
2017-10-11T10:36:50.000Z,19.96
2017-10-11T10:46:50.000Z,19.94
2017-10-11T10:56:50.000Z,20.04
2017-10-11T11:06:50.000Z,20.17
2017-10-11T11:16:50.000Z,20.33
2017-10-11T11:26:50.000Z,20.26
2017-10-11T11:36:50.000Z,20.23
2017-10-11T11:46:50.000Z,20.21
2017-10-11T11:56:50.000Z,20.23
2017-10-11T12:06:50.000Z,20.18
2017-10-11T12:16:50.000Z,20.15
2017-10-11T12:36:54.000Z,20.17
2017-10-11T12:46:50.000Z,20.25
2017-10-11T12:56:50.000Z,20.29
2017-10-11T13:06:50.000Z,20.3
2017-10-11T13:16:50.000Z,20.33
2017-10-11T13:26:50.000Z,20.31
2017-10-11T13:36:51.000Z,20.3
2017-10-11T13:46:51.000Z,20.31
2017-10-11T13:56:51.000Z,20.3
2017-10-11T14:06:51.000Z,20.31
2017-10-11T14:16:51.000Z,20.29
2017-10-11T14:26:51.000Z,20.26
2017-10-11T14:36:51.000Z,20.24
2017-10-11T14:46:51.000Z,20.23
2017-10-11T14:56:51.000Z,20.23
2017-10-11T15:06:51.000Z,20.25
2017-10-11T15:16:51.000Z,20.25
2017-10-11T15:26:51.000Z,20.22
2017-10-11T15:36:51.000Z,20.2
2017-10-11T15:46:51.000Z,20.17
2017-10-11T15:56:51.000Z,20.16
2017-10-11T16:06:51.000Z,20.12
2017-10-11T16:16:51.000Z,20.115
2017-10-11T16:26:51.000Z,20.11
2017-10-11T16:36:51.000Z,20.17
2017-10-11T16:46:51.000Z,20.13
2017-10-11T16:56:51.000Z,20.1
2017-10-11T17:06:51.000Z,20.17
2017-10-11T17:16:51.000Z,20.14
2017-10-11T17:26:51.000Z,20.1
2017-10-11T17:36:51.000Z,20.06
2017-10-11T17:46:52.000Z,20.07
2017-10-11T17:56:51.000Z,20.04
2017-10-11T18:06:51.000Z,20.04
2017-10-11T18:16:51.000Z,20.04
2017-10-11T18:36:51.000Z,20.05
2017-10-11T18:46:51.000Z,20.03
2017-10-11T18:56:51.000Z,20.03
2017-10-11T19:06:51.000Z,20.04
2017-10-11T19:26:51.000Z,20.02
2017-10-11T19:36:51.000Z,19.99
2017-10-11T19:46:51.000Z,19.99
2017-10-11T19:56:51.000Z,19.98
2017-10-11T20:06:52.000Z,20
2017-10-11T20:16:51.000Z,20
2017-10-11T20:26:51.000Z,20.01
2017-10-11T20:36:51.000Z,19.99
2017-10-11T21:06:51.000Z,20.05
2017-10-11T21:16:52.000Z,20.04
2017-10-11T21:26:51.000Z,20
2017-10-11T21:36:51.000Z,19.99
2017-10-11T21:46:52.000Z,19.99
2017-10-11T21:56:51.000Z,19.97
2017-10-11T22:06:51.000Z,19.97
2017-10-11T22:16:52.000Z,19.97
2017-10-11T22:26:52.000Z,19.96
2017-10-11T22:36:52.000Z,19.95
2017-10-11T22:46:52.000Z,19.93
2017-10-11T22:56:52.000Z,19.92
2017-10-11T23:06:52.000Z,19.92
2017-10-11T23:16:52.000Z,19.93
2017-10-11T23:26:52.000Z,19.91
2017-10-11T23:36:52.000Z,19.91
2017-10-11T23:46:52.000Z,19.9
2017-10-11T23:56:52.000Z,19.91
